• Join FlightAware (Why Join?)
  • Login
  • US Flag 
03:58AM EDT


 

Airport Tracker/Info


-or-


 

Live Flight TrackerFlight Track Log ✈ WWW336 ✈ 02-May-2013 ✈ KLAS - KTNX

Flight Track Log - Related Links

Times and Time Zones

All times are in EDT time to prevent confusion due to time zone crossing. See the WWW336 flight status page for this flight to view local times or setup timezone preferences in your user account.

Time Position Orientation Groundspeed Altitude Reporting Facility
EDT Latitude Longitude Course Direction KTS MPH feet Rate Location/Type
09:05PM 36.0756 -115.1364 92° East 139 160 3,400  Level Los Angeles Center
09:06PM 36.0747 -115.1128 92° East 168 193 4,100 3,120 Climbing Los Angeles Center
09:07PM 36.0772 -115.0347 88° East 204 235 8,200 3,180 Climbing Los Angeles Center
09:08PM 36.1108 -114.9819 52° Northeast 249 287 11,300 2,640 Climbing Los Angeles Center
09:09PM 36.1567 -115.0647 304° West 306 352 13,900 1,260 Climbing Los Angeles Center
09:10PM 36.1839 -115.1800 286° West 342 394 14,000  Climbing Los Angeles Center
09:11PM 36.2217 -115.3164 289° West 347 399 14,000  Level Los Angeles Center
09:12PM 36.2519 -115.4308 288° West 349 402 14,000 1,200 Level Los Angeles Center
09:13PM 36.2931 -115.5394 295° West 350 403 16,600 2,820 Climbing Los Angeles Center
09:14PM 36.3600 -115.6581 305° West 381 438 19,900 1,620 Climbing Los Angeles Center
09:15PM 36.4225 -115.7683 305° West 388 447 20,000  Climbing Los Angeles Center
09:16PM 36.4861 -115.8819 305° West 394 453 20,000  Level Los Angeles Center
09:17PM 36.5431 -115.9847 305° West 400 460 20,000  Level Los Angeles Center
09:18PM 36.5994 -116.1342 295° West 402 463 20,000  Level Los Angeles Center
09:19PM 36.6358 -116.2658 289° West 402 463 20,000  Level Los Angeles Center
09:20PM 36.6725 -116.3964 289° West 400 460 20,000  Level Los Angeles Center
09:21PM 36.7253 -116.5169 299° West 398 458 20,000  Level Los Angeles Center
09:22PM 36.7881 -116.6311 304° West 399 459 20,000  Level Los Angeles Center
09:23PM 36.8719 -116.7214 319° Northwest 402 463 20,000  Level Los Angeles Center
09:24PM 36.9636 -116.7975 326° Northwest 397 457 20,000  Level Los Angeles Center
09:25PM 37.0739 -116.8903 326° Northwest 397 457 20,000  Level Los Angeles Center
09:26PM 37.1678 -116.9650 328° Northwest 400 460 20,000  Level Los Angeles Center
09:27PM 37.2611 -117.0392 328° Northwest 396 456 20,000  Level Los Angeles Center
09:28PM 37.3508 -117.1169 325° Northwest 393 452 20,000  Level Los Angeles Center
09:29PM 37.4372 -117.2036 321° Northwest 394 453 20,000  Level Los Angeles Center
09:31PM 37.5386 -117.2439 343° North 401 461 20,000 -1,020 Level Los Angeles Center
09:32PM 37.6467 -117.2281 North 394 453 18,000 -2,880 Descending Los Angeles Center
09:33PM 37.7708 -117.2111 North 379 436 14,100 -3,180 Descending Los Angeles Center
09:34PM 37.8714 -117.1975 North 369 425 11,600 -1,680 Descending Los Angeles Center
09:35PM 37.9517 -117.1683 16° North 318 366 10,700 -720 Descending Los Angeles Center
09:36PM 37.9583 -117.0806 84° East 266 306 10,200 -540 Descending Los Angeles Center
09:37PM 37.9525 -117.0033 95° East 239 275 9,700 -660 Descending Los Angeles Center
09:38PM 37.9469 -116.9344 96° East 217 250 8,900 -960 Descending Los Angeles Center
09:39PM 37.9231 -116.8678 114° Southeast 202 232 7,800 -900 Descending Los Angeles Center
09:40PM 37.8950 -116.8308 134° Southeast 165 190 7,100 -720 Descending Los Angeles Center
09:41PM 37.8603 -116.8139 159° South 145 167 6,400 -720 Descending Los Angeles Center
09:42PM 37.8261 -116.7969 159° South 136 157 5,700 -720 Descending Los Angeles Center